Flight Track Log - Related Links

Times and Time Zones

All times are in EST time to prevent confusion due to time zone crossing. See the N910SE flight status page for this flight to view local times or setup timezone preferences in your user account.


Time Position Orientation Groundspeed Altitude Reporting Facility
EST Latitude Longitude Course Direction KTS MPH feet Rate Location/Type
Fri 01:11:07 PM 34.1833 -118.5000 75° East 90 104 1,700  Level Southern California TRACON
Fri 01:12:07 PM 34.2000 -118.5167 320° Northwest 106 122 2,100 300 Climbing Southern California TRACON
Fri 01:13:07 PM 34.2333 -118.5167 360° North 109 125 2,300 200 Climbing Southern California TRACON
Fri 01:14:07 PM 34.2500 -118.5167 360° North 109 125 2,500 263 Climbing Southern California TRACON
Fri 01:15:01 PM 34.2833 -118.5167 360° North 107 123 2,800 500 Climbing Southern California TRACON
Fri 01:15:55 PM 34.3000 -118.5000 40° Northeast 87 100 3,400 632 Climbing Southern California TRACON
Fri 01:16:00 PM 34.2714 -118.3166 75° East  Level Estimated
Fri 01:16:55 PM 34.3333 -118.5000 360° North 79 91 4,000  Level Southern California TRACON
Fri 01:17:55 PM 34.3500 -118.5000 360° North 76 87 4,600 600 Climbing Southern California TRACON
Fri 01:18:55 PM 34.3667 -118.4833 40° Northeast 83 96 5,200 600 Climbing Southern California TRACON
Fri 01:19:55 PM 34.3833 -118.4667 40° Northeast 87 100 5,800 574 Climbing Southern California TRACON
Fri 01:20:50 PM 34.4000 -118.4500 40° Northeast 90 104 6,300 558 Climbing Southern California TRACON
Fri 01:21:21 PM 34.4036 -118.4369 71° East 89 102 6,600 581 Climbing Los Angeles Center
Fri 01:22:23 PM 34.4147 -118.4081 65° Northeast 93 107 7,200 484 Climbing Los Angeles Center
Fri 01:23:25 PM 34.4192 -118.3681 82° East 101 116 7,600 242 Climbing Los Angeles Center
Fri 01:24:27 PM 34.4244 -118.3272 81° East 121 139 7,700 48 Climbing Los Angeles Center
Fri 01:25:30 PM 34.4419 -118.2889 61° Northeast 135 155 7,700 -48 Level Los Angeles Center
Fri 01:26:32 PM 34.4642 -118.2553 51° Northeast 127 146 7,600 -48 Descending Los Angeles Center
Fri 01:27:34 PM 34.4800 -118.2186 62° Northeast 124 143 7,600 -290 Level Los Angeles Center
Fri 01:28:36 PM 34.4989 -118.1847 56° Northeast 122 140 7,000 -629 Descending Los Angeles Center
Fri 01:29:38 PM 34.5086 -118.1364 76° East 129 148 6,300 -435 Descending Los Angeles Center
Fri 01:30:40 PM 34.5197 -118.1017 69° East 120 138 6,100 -97 Descending Los Angeles Center
Fri 01:31:42 PM 34.5308 -118.0639 70° East 119 137 6,100  Level Los Angeles Center
Fri 01:32:44 PM 34.5431 -118.0172 72° East 119 137 6,100  Level Los Angeles Center
Fri 01:33:46 PM 34.5503 -117.9739 79° East 124 143 6,100  Level Los Angeles Center
Fri 01:34:49 PM 34.5544 -117.9294 83° East 129 148 6,100  Level Los Angeles Center
Fri 01:35:51 PM 34.5575 -117.8850 85° East 130 150 6,100 -48 Level Los Angeles Center
Fri 01:36:53 PM 34.5572 -117.8417 90° East 130 150 6,000 -194 Descending Los Angeles Center
Fri 01:37:55 PM 34.5536 -117.7950 95° East 132 152 5,700 -145 Descending Los Angeles Center
Fri 01:38:57 PM 34.5478 -117.7411 97° East 135 155 5,700  Level Los Angeles Center
Fri 01:40:11 PM 34.5431 -117.6983 98° East 133 153 5,700  Level Los Angeles Center
Fri 01:41:14 PM 34.5444 -117.6461 88° East 130 150 5,700  Level Los Angeles Center
Fri 01:42:16 PM 34.5456 -117.6014 88° East 131 151 5,700 -97 Level Los Angeles Center
Fri 01:43:18 PM 34.5456 -117.5575 90° East 132 152 5,500 -194 Descending Los Angeles Center
Fri 01:44:20 PM 34.5458 -117.5011 90° East 135 155 5,300 -194 Descending Los Angeles Center
Fri 01:45:22 PM 34.5639 -117.4614 61° Northeast 141 162 5,100 -336 Descending Los Angeles Center
Fri 01:46:25 PM 34.5875 -117.4275 50° Northeast 134 154 4,600 -576 Descending Los Angeles Center
Fri 01:47:27 PM 34.6086 -117.3881 57° Northeast 136 157 3,900 -532 Descending Los Angeles Center
Fri 01:48:29 PM 34.6211 -117.3542 66° East 126 145 3,500 -290 Descending Los Angeles Center
Fri 01:49:31 PM 34.6094 -117.3725 232° Southwest 124 143 3,300 -194 Descending Los Angeles Center

Login

Don't have an account? Register now (free) for customized features, flight alerts, and more!